Time;durP1;ratioP1;P1;durP2;ratioP2;P2;SDS_P1;SDS_P2;PMS_P1;PMS_P2;Temp;Humidity;BMP_temperature;BMP_pressure;BME280_temperature;BME280_humidity;BME280_pressure;Samples;Min_cycle;Max_cycle;Signal;HPM_P1;HPM_P2
2020/12/25 00:01:55;;;;;;;40.22;18.40;;;;;;;0.33;60.53;99315.50;5091772;28;20054;-68
2020/12/25 00:04:21;;;;;;;36.13;17.05;;;;;;;0.50;60.72;99348.13;5091727;28;20040;-68
2020/12/25 00:06:46;;;;;;;34.42;16.35;;;;;;;0.51;60.58;99337.50;5091080;28;20088;-59
2020/12/25 00:09:12;;;;;;;38.25;17.20;;;;;;;0.54;60.55;99321.53;5089822;28;20036;-66
2020/12/25 00:11:38;;;;;;;34.15;15.38;;;;;;;0.53;60.34;99314.56;5091954;28;20066;-67
2020/12/25 00:14:05;;;;;;;37.20;16.80;;;;;;;0.55;60.83;99319.78;5091074;28;20122;-66
2020/12/25 00:16:31;;;;;;;35.78;16.55;;;;;;;0.47;60.57;99311.34;5092527;28;20032;-67
2020/12/25 00:18:56;;;;;;;35.17;18.00;;;;;;;0.53;60.49;99317.19;5091739;28;20036;-66
2020/12/25 00:21:22;;;;;;;38.92;17.52;;;;;;;0.24;60.77;99239.56;5090317;28;20384;-67
2020/12/25 00:23:48;;;;;;;32.05;15.80;;;;;;;0.53;60.43;99288.22;5091139;28;20040;-66
2020/12/25 00:26:27;;;;;;;34.65;16.23;;;;;;;0.68;60.62;99312.97;5091338;28;20052;-66
2020/12/25 00:28:54;;;;;;;36.65;16.92;;;;;;;0.56;60.74;99292.50;5108918;28;20504;-66
2020/12/25 00:31:32;;;;;;;33.38;15.73;;;;;;;0.68;60.94;99307.72;5111765;28;20028;-66
2020/12/25 00:34:01;;;;;;;33.05;15.45;;;;;;;0.64;61.11;99298.25;5111638;28;20037;-66
2020/12/25 00:36:30;;;;;;;34.30;16.15;;;;;;;0.62;61.00;99294.84;5111980;28;20065;-65
2020/12/25 00:38:56;;;;;;;35.15;15.80;;;;;;;0.68;61.04;99278.72;5109812;28;20565;-65
2020/12/25 00:41:22;;;;;;;32.55;15.50;;;;;;;0.71;61.17;99283.00;5103340;28;20424;-67
2020/12/25 00:43:47;;;;;;;35.33;17.00;;;;;;;0.47;61.26;99262.19;5109342;28;20049;-66
2020/12/25 00:46:14;;;;;;;31.80;15.82;;;;;;;0.67;61.25;99263.84;5111774;28;20433;-66
2020/12/25 00:48:40;;;;;;;35.40;16.38;;;;;;;0.74;61.22;99276.75;5101140;28;20146;-67
2020/12/25 00:51:12;;;;;;;33.70;17.02;;;;;;;0.74;61.17;99292.56;5090623;28;20058;-65
2020/12/25 00:53:37;;;;;;;37.30;16.67;;;;;;;0.75;61.18;99270.53;5091065;28;20040;-64
2020/12/25 00:56:03;;;;;;;34.95;16.92;;;;;;;0.74;61.67;99250.38;5091062;28;20030;-66
2020/12/25 00:58:28;;;;;;;30.58;15.20;;;;;;;0.77;61.36;99255.50;5096286;28;20039;-67
2020/12/25 01:00:54;;;;;;;37.08;16.88;;;;;;;0.76;61.55;99245.91;5110813;28;20046;-65
2020/12/25 01:03:19;;;;;;;33.92;16.75;;;;;;;0.80;61.95;99274.63;5110801;28;20042;-67
2020/12/25 01:05:45;;;;;;;34.42;16.08;;;;;;;0.81;61.81;99250.00;5111421;28;20027;-65
2020/12/25 01:08:10;;;;;;;30.75;16.00;;;;;;;0.83;61.79;99260.47;5109233;28;20035;-67
2020/12/25 01:10:35;;;;;;;34.70;15.50;;;;;;;0.88;61.81;99236.53;5109231;28;20550;-66
2020/12/25 01:13:01;;;;;;;31.15;16.02;;;;;;;0.82;61.90;99214.78;5108885;28;20100;-66
2020/12/25 01:15:26;;;;;;;34.17;17.02;;;;;;;0.76;61.54;99214.28;5111265;28;20038;-65
2020/12/25 01:17:52;;;;;;;34.42;15.48;;;;;;;0.88;61.82;99241.81;5109917;28;20522;-67
2020/12/25 01:20:17;;;;;;;33.22;16.13;;;;;;;0.90;61.52;99214.41;5108784;28;20039;-65
2020/12/25 01:22:43;;;;;;;31.05;15.50;;;;;;;0.84;61.70;99263.03;5110668;28;20510;-66
2020/12/25 01:25:09;;;;;;;29.10;14.57;;;;;;;0.98;61.34;99227.22;5109520;28;20072;-66
2020/12/25 01:27:35;;;;;;;33.97;15.85;;;;;;;0.97;61.67;99233.41;5110256;28;20055;-64
2020/12/25 01:30:01;;;;;;;29.83;15.13;;;;;;;0.93;61.76;99211.63;5108872;28;20058;-67
2020/12/25 01:32:27;;;;;;;34.83;16.05;;;;;;;0.84;61.84;99183.09;5110229;28;20031;-65
2020/12/25 01:34:52;;;;;;;34.50;16.10;;;;;;;1.06;61.31;99195.19;5110084;28;20040;-64
2020/12/25 01:37:18;;;;;;;35.60;16.83;;;;;;;0.97;61.55;99183.34;5110477;28;20063;-65
2020/12/25 01:39:43;;;;;;;31.20;15.25;;;;;;;1.00;61.63;99191.94;5110438;28;20043;-64
2020/12/25 01:42:08;;;;;;;28.50;13.63;;;;;;;0.89;61.39;99154.72;5108714;28;20542;-63
2020/12/25 01:44:34;;;;;;;26.73;14.75;;;;;;;1.02;61.47;99180.47;5110417;28;20226;-64
2020/12/25 01:47:01;;;;;;;30.02;13.70;;;;;;;1.03;61.68;99182.16;5110151;28;20028;-63
2020/12/25 01:49:26;;;;;;;26.83;14.18;;;;;;;1.09;61.73;99192.38;5110037;28;20039;-64
2020/12/25 01:51:52;;;;;;;30.50;14.60;;;;;;;1.09;61.60;99188.00;5096209;28;20039;-64
2020/12/25 01:54:18;;;;;;;29.17;14.48;;;;;;;1.08;61.75;99180.16;5089807;28;20044;-63
2020/12/25 01:56:43;;;;;;;30.67;14.45;;;;;;;0.99;61.88;99145.44;5090296;28;20040;-64
2020/12/25 01:59:09;;;;;;;27.42;14.07;;;;;;;1.05;61.89;99144.22;5090295;28;20369;-67
2020/12/25 02:01:35;;;;;;;28.58;13.98;;;;;;;1.02;61.77;99127.75;5110160;28;20089;-65
2020/12/25 02:04:01;;;;;;;24.05;12.93;;;;;;;1.17;61.55;99157.72;5110096;28;20084;-64
2020/12/25 02:06:26;;;;;;;24.02;13.38;;;;;;;0.59;61.86;99044.72;5110348;28;20031;-67
2020/12/25 02:08:52;;;;;;;26.13;14.13;;;;;;;1.17;61.61;99158.56;5109614;28;20031;-67
2020/12/25 02:11:18;;;;;;;26.65;13.77;;;;;;;1.23;61.74;99142.44;5108394;28;20058;-59
2020/12/25 02:13:44;;;;;;;20.08;10.10;;;;;;;1.29;61.71;99155.28;5090244;28;20085;-67
2020/12/25 02:16:09;;;;;;;24.38;11.80;;;;;;;1.26;61.99;99150.19;5088021;28;20040;-64
2020/12/25 02:18:38;;;;;;;21.45;11.68;;;;;;;1.07;62.15;99125.72;5089204;28;20036;-65
2020/12/25 02:21:04;;;;;;;25.33;12.23;;;;;;;1.09;61.80;99130.00;5093478;28;20035;-65
2020/12/25 02:23:30;;;;;;;23.27;12.43;;;;;;;1.14;61.80;99119.19;5093919;28;20046;-65
2020/12/25 02:25:56;;;;;;;22.33;13.25;;;;;;;1.27;61.99;99151.88;5093298;28;20061;-67
2020/12/25 02:28:21;;;;;;;23.52;11.23;;;;;;;1.27;62.43;99159.78;5093367;28;20515;-65
2020/12/25 02:30:47;;;;;;;20.92;11.77;;;;;;;1.24;62.18;99133.59;5095222;28;20046;-64
2020/12/25 02:33:12;;;;;;;23.40;11.60;;;;;;;1.26;62.50;99129.09;5093555;28;20122;-64
2020/12/25 02:35:38;;;;;;;20.67;12.07;;;;;;;1.26;62.36;99138.75;5093325;28;20391;-67
2020/12/25 02:38:03;;;;;;;24.42;13.18;;;;;;;1.23;62.95;99125.75;5093236;28;20380;-66
2020/12/25 02:40:29;;;;;;;22.98;12.65;;;;;;;1.23;63.08;99129.25;5093681;28;20435;-66
2020/12/25 02:42:54;;;;;;;21.73;12.25;;;;;;;0.93;63.29;99102.72;5094671;28;20036;-66
2020/12/25 02:45:20;;;;;;;21.20;12.02;;;;;;;0.54;63.15;99033.59;5093068;28;20093;-65
2020/12/25 02:47:45;;;;;;;22.33;11.57;;;;;;;0.82;63.65;99055.84;5092958;28;20039;-64
2020/12/25 02:50:10;;;;;;;14.75;7.85;;;;;;;1.27;63.30;99096.50;5092981;28;20403;-66
2020/12/25 02:52:36;;;;;;;22.02;12.13;;;;;;;1.21;63.49;99112.66;5094273;28;20028;-63
2020/12/25 02:55:02;;;;;;;19.00;10.73;;;;;;;1.10;63.65;99099.19;5092827;28;20038;-65
2020/12/25 02:57:28;;;;;;;19.48;11.25;;;;;;;0.97;63.68;99089.31;5092796;28;20217;-65
2020/12/25 02:59:53;;;;;;;19.48;11.57;;;;;;;0.95;63.96;99056.88;5092790;28;20047;-65
2020/12/25 03:02:18;;;;;;;20.98;12.70;;;;;;;1.14;64.12;99090.16;5096139;28;20036;-66
2020/12/25 03:04:44;;;;;;;16.40;9.45;;;;;;;1.17;63.80;99078.63;5113639;28;20035;-65
2020/12/25 03:07:11;;;;;;;19.25;10.98;;;;;;;1.10;64.00;99092.13;5112770;28;20577;-64
2020/12/25 03:09:36;;;;;;;16.77;10.50;;;;;;;0.71;64.16;99017.72;5113065;28;20035;-65
2020/12/25 03:12:02;;;;;;;14.48;8.50;;;;;;;1.01;64.29;99063.63;5113366;28;20051;-66
2020/12/25 03:14:27;;;;;;;16.42;10.50;;;;;;;1.05;64.00;99083.59;5110556;28;20100;-64
2020/12/25 03:16:53;;;;;;;18.05;10.20;;;;;;;1.05;64.28;99069.59;5112731;28;20050;-64
2020/12/25 03:19:18;;;;;;;14.52;9.70;;;;;;;1.05;64.35;99085.41;5113483;28;20122;-65
2020/12/25 03:21:44;;;;;;;18.00;10.73;;;;;;;1.04;64.42;99062.63;5113377;28;20502;-63
2020/12/25 03:24:09;;;;;;;15.73;9.23;;;;;;;1.06;64.47;99050.19;5110766;28;20486;-65
2020/12/25 03:26:35;;;;;;;19.67;9.82;;;;;;;1.09;64.54;99063.22;5112404;28;20079;-63
2020/12/25 03:29:00;;;;;;;16.25;9.57;;;;;;;0.57;64.13;98992.09;5112513;28;20116;-64
2020/12/25 03:31:26;;;;;;;13.88;9.43;;;;;;;1.05;64.41;99057.25;5111947;28;20127;-66
2020/12/25 03:33:51;;;;;;;16.08;9.88;;;;;;;0.58;64.20;98969.25;5111072;28;20084;-63
2020/12/25 03:36:17;;;;;;;17.67;10.45;;;;;;;1.08;64.21;99054.44;5113138;28;20069;-66
2020/12/25 03:38:42;;;;;;;16.40;9.77;;;;;;;1.04;64.41;99044.16;5112336;28;20414;-66
2020/12/25 03:41:08;;;;;;;25.20;10.57;;;;;;;1.08;64.38;99046.53;5112129;28;20089;-65
2020/12/25 03:43:33;;;;;;;16.13;10.27;;;;;;;0.99;64.37;99025.94;5112259;28;20122;-64
2020/12/25 03:45:59;;;;;;;17.05;10.18;;;;;;;1.12;64.39;99041.94;5110765;28;20060;-65
2020/12/25 03:48:25;;;;;;;16.45;10.23;;;;;;;1.13;64.33;99036.59;5112268;28;20046;-65
2020/12/25 03:50:50;;;;;;;16.05;9.25;;;;;;;1.10;64.19;99046.44;5112572;28;20035;-65
2020/12/25 03:53:16;;;;;;;17.15;9.00;;;;;;;1.11;64.32;99032.34;5112343;28;20399;-66
2020/12/25 03:55:41;;;;;;;18.85;9.98;;;;;;;0.74;64.38;98977.19;5082921;28;20024;-65
2020/12/25 03:58:07;;;;;;;19.63;10.18;;;;;;;1.08;64.65;99035.97;5091752;28;20473;-65
2020/12/25 04:00:32;;;;;;;13.70;8.05;;;;;;;1.11;64.01;99027.06;5091938;28;20039;-64
2020/12/25 04:02:58;;;;;;;13.82;8.50;;;;;;;1.00;64.53;99020.59;5090767;28;20039;-63
2020/12/25 04:05:24;;;;;;;12.93;8.27;;;;;;;0.92;64.42;98993.78;5092433;28;20042;-63
2020/12/25 04:07:50;;;;;;;11.30;8.02;;;;;;;0.94;64.06;99013.00;5091565;28;20036;-66
2020/12/25 04:10:15;;;;;;;14.07;7.32;;;;;;;1.08;64.32;99038.63;5091649;28;20069;-65
2020/12/25 04:12:41;;;;;;;14.45;7.55;;;;;;;1.03;63.98;99002.91;5091346;28;20028;-65
2020/12/25 04:15:06;;;;;;;11.50;7.18;;;;;;;0.99;64.40;98996.94;5091281;28;20126;-63
2020/12/25 04:17:31;;;;;;;14.63;7.80;;;;;;;1.04;64.29;99009.88;5092558;28;20074;-63
2020/12/25 04:19:57;;;;;;;10.75;6.82;;;;;;;1.02;64.31;99017.88;5089989;28;20047;-63
2020/12/25 04:22:22;;;;;;;15.55;7.80;;;;;;;1.02;63.83;98995.94;5091623;28;20472;-64
2020/12/25 04:24:48;;;;;;;12.40;6.43;;;;;;;0.98;63.91;98997.88;5091010;28;20495;-63
2020/12/25 04:27:13;;;;;;;11.40;6.65;;;;;;;0.98;64.54;98989.97;5102302;28;20053;-64
2020/12/25 04:29:39;;;;;;;10.88;6.53;;;;;;;0.68;64.55;98952.00;5111746;28;20122;-64
2020/12/25 04:32:04;;;;;;;10.55;6.78;;;;;;;1.05;64.24;99007.16;5111147;28;20414;-65
2020/12/25 04:34:30;;;;;;;8.05;5.80;;;;;;;1.08;64.08;99001.72;5111491;28;20073;-65
2020/12/25 04:36:55;;;;;;;13.55;6.75;;;;;;;1.06;64.09;98993.03;5104857;28;20124;-60
2020/12/25 04:39:21;;;;;;;14.80;6.82;;;;;;;0.93;64.33;98981.47;5091529;28;20403;-65
2020/12/25 04:41:46;;;;;;;13.18;6.78;;;;;;;0.93;64.14;98973.56;5090771;28;20463;-66
2020/12/25 04:44:12;;;;;;;11.23;6.38;;;;;;;0.91;64.38;98984.19;5089838;28;20036;-65
2020/12/25 04:46:37;;;;;;;9.60;5.95;;;;;;;0.98;64.35;98982.06;5091151;28;20035;-65
2020/12/25 04:49:03;;;;;;;10.38;6.35;;;;;;;0.91;64.67;98997.34;5090777;28;20449;-64
2020/12/25 04:51:28;;;;;;;12.90;6.03;;;;;;;0.89;64.45;98978.16;5090354;28;20039;-62
2020/12/25 04:53:55;;;;;;;12.50;6.15;;;;;;;0.83;64.95;98989.88;5090130;28;20028;-64
2020/12/25 04:56:22;;;;;;;12.65;6.93;;;;;;;0.84;64.79;98980.19;5090398;28;20028;-64
2020/12/25 04:58:48;;;;;;;10.32;5.97;;;;;;;0.89;64.82;98977.31;5091177;28;20491;-65
2020/12/25 05:01:14;;;;;;;10.45;6.50;;;;;;;0.82;64.94;98977.63;5090226;28;20040;-65
2020/12/25 05:03:42;;;;;;;10.25;6.18;;;;;;;0.42;64.90;98919.19;5088708;28;20491;-64
2020/12/25 05:06:18;;;;;;;10.50;5.70;;;;;;;0.78;64.96;98962.06;5090772;28;20529;-64
2020/12/25 05:08:50;;;;;;;11.00;6.28;;;;;;;0.78;64.92;98968.19;5100342;28;20043;-64
2020/12/25 05:11:18;;;;;;;12.60;6.30;;;;;;;0.75;65.15;98951.72;5110638;28;20449;-64
2020/12/25 05:13:49;;;;;;;13.73;6.25;;;;;;;0.70;65.25;98936.13;5110325;28;20036;-64
2020/12/25 05:16:16;;;;;;;10.75;6.82;;;;;;;0.84;64.70;98956.47;5110960;28;20057;-65
2020/12/25 05:18:47;;;;;;;14.82;6.72;;;;;;;0.76;64.76;98953.41;5102207;28;20538;-68
2020/12/25 05:21:15;;;;;;;17.35;6.80;;;;;;;0.66;64.87;98922.28;5089529;28;20050;-66
2020/12/25 05:23:42;;;;;;;10.65;5.90;;;;;;;0.83;64.86;98949.50;5090032;28;20118;-65
2020/12/25 05:26:11;;;;;;;11.90;6.18;;;;;;;0.54;64.83;98901.88;5089951;28;20154;-65
2020/12/25 05:28:55;;;;;;;14.63;7.25;;;;;;;0.76;65.03;98912.09;5094288;28;20126;-65
2020/12/25 05:31:20;;;;;;;9.63;5.20;;;;;;;0.85;64.67;98937.09;5109124;28;20073;-66
2020/12/25 05:33:49;;;;;;;23.38;7.00;;;;;;;0.79;65.01;98924.25;5109030;28;20031;-64
2020/12/25 05:36:16;;;;;;;10.93;6.18;;;;;;;0.85;64.52;98931.81;5110460;28;20057;-65
2020/12/25 05:38:50;;;;;;;10.45;6.18;;;;;;;0.39;64.23;98870.16;5108013;28;20043;-66
2020/12/25 05:41:16;;;;;;;14.75;6.75;;;;;;;0.76;64.55;98951.59;5109195;28;20114;-66
2020/12/25 05:43:49;;;;;;;12.07;6.43;;;;;;;0.63;64.79;98916.34;5110152;28;20390;-59
2020/12/25 05:46:15;;;;;;;11.25;4.82;;;;;;;0.83;64.10;98931.06;5109060;28;20027;-66
2020/12/25 05:48:41;;;;;;;11.27;5.60;;;;;;;0.75;64.57;98942.00;5110544;28;20035;-67
2020/12/25 05:51:09;;;;;;;12.68;6.68;;;;;;;0.69;64.06;98927.38;5107939;28;20566;-64
2020/12/25 05:53:36;;;;;;;14.45;6.32;;;;;;;0.70;64.26;98926.44;5109344;28;20429;-71
2020/12/25 05:56:02;;;;;;;12.43;6.75;;;;;;;0.69;64.60;98918.63;5112864;28;20039;-63
2020/12/25 05:58:31;;;;;;;12.07;6.50;;;;;;;0.74;64.64;98913.13;5114591;28;20758;-67
2020/12/25 06:00:57;;;;;;;13.23;6.82;;;;;;;0.76;64.20;98916.53;5095388;28;20032;-65
2020/12/25 06:03:23;;;;;;;15.38;7.13;;;;;;;0.69;64.41;98906.28;5093833;28;20455;-66
2020/12/25 06:05:51;;;;;;;13.68;6.88;;;;;;;0.67;64.23;98891.53;5094451;28;20376;-68
2020/12/25 06:08:25;;;;;;;16.23;7.70;;;;;;;0.67;63.99;98904.69;5093553;28;20127;-69
2020/12/25 06:11:00;;;;;;;15.18;8.40;;;;;;;0.66;64.35;98917.00;5094500;28;20038;-71
2020/12/25 06:13:39;;;;;;;19.50;8.93;;;;;;;0.67;63.81;98917.88;5098513;28;20085;-69
2020/12/25 06:16:06;;;;;;;18.10;9.57;;;;;;;0.66;64.08;98913.53;5111651;28;20478;-70
2020/12/25 06:18:57;;;;;;;18.48;10.35;;;;;;;0.56;63.97;98884.22;5113381;28;20038;-66
2020/12/25 06:21:29;;;;;;;19.48;10.10;;;;;;;0.58;63.24;98898.16;5110560;28;20106;-69
2020/12/25 06:23:56;;;;;;;15.05;8.45;;;;;;;0.51;63.95;98892.34;5113692;28;20081;-69
2020/12/25 06:26:24;;;;;;;13.68;6.63;;;;;;;0.54;63.79;98904.50;5113823;28;20047;-69
2020/12/25 06:28:49;;;;;;;15.30;7.75;;;;;;;0.44;63.66;98904.16;5113412;28;20040;-67
2020/12/25 06:31:34;;;;;;;16.60;8.38;;;;;;;0.42;63.66;98891.06;5113297;28;20487;-69
2020/12/25 06:34:03;;;;;;;14.00;7.13;;;;;;;0.45;63.47;98887.41;5114329;28;20493;-69
2020/12/25 06:36:29;;;;;;;19.60;8.98;;;;;;;0.39;63.51;98903.56;5113855;28;20143;-68
2020/12/25 06:38:57;;;;;;;18.25;6.10;;;;;;;0.47;62.84;98884.69;5113283;28;20490;-69
2020/12/25 06:41:25;;;;;;;16.38;8.27;;;;;;;0.28;63.72;98893.59;5111617;28;20028;-68
2020/12/25 06:43:55;;;;;;;14.10;8.60;;;;;;;0.22;63.70;98899.16;5113328;28;20043;-69
2020/12/25 06:46:29;;;;;;;15.77;8.48;;;;;;;0.20;62.87;98898.41;5112927;28;20040;-69
2020/12/25 06:48:59;;;;;;;17.23;8.20;;;;;;;0.15;63.10;98906.56;5113065;27;20023;-69
2020/12/25 06:51:26;;;;;;;14.52;8.20;;;;;;;0.10;63.49;98892.78;5106415;28;20043;-69
2020/12/25 06:53:56;;;;;;;18.70;8.45;;;;;;;0.03;63.23;98887.00;5093751;28;20036;-71
2020/12/25 06:56:21;;;;;;;15.27;8.48;;;;;;;-0.24;63.29;98850.69;5092898;28;20031;-70
2020/12/25 06:58:55;;;;;;;15.90;7.97;;;;;;;0.06;63.03;98891.22;5092757;28;20181;-69
2020/12/25 07:01:55;;;;;;;18.92;9.02;;;;;;;0.03;63.11;98923.84;5093855;28;20556;-70
2020/12/25 07:04:30;;;;;;;17.88;8.40;;;;;;;-0.01;62.96;98924.91;5090444;28;20130;-69
2020/12/25 07:07:03;;;;;;;15.80;8.38;;;;;;;0.06;62.52;98901.75;5093515;28;20464;-69
2020/12/25 07:09:37;;;;;;;18.30;8.93;;;;;;;-0.11;62.45;98905.28;5113331;28;20122;-67
2020/12/25 07:12:13;;;;;;;13.50;7.75;;;;;;;-0.09;63.04;98893.75;5111954;28;20110;-68
2020/12/25 07:14:38;;;;;;;12.63;6.18;;;;;;;-0.09;62.66;98908.66;5112918;28;20035;-69
2020/12/25 07:17:04;;;;;;;17.98;7.60;;;;;;;-0.14;62.54;98901.00;5113138;28;20067;-61
2020/12/25 07:19:29;;;;;;;16.27;8.38;;;;;;;-0.22;62.84;98892.66;5111919;28;20054;-69
2020/12/25 07:21:56;;;;;;;22.70;9.57;;;;;;;-0.26;62.89;98918.28;5111358;28;20179;-68
2020/12/25 07:24:22;;;;;;;20.15;9.13;;;;;;;-0.32;62.88;98897.53;5092184;28;20359;-70
2020/12/25 07:26:48;;;;;;;19.08;9.27;;;;;;;-0.36;63.14;98901.25;5095969;28;20063;-69
2020/12/25 07:29:19;;;;;;;18.67;9.63;;;;;;;-0.35;62.68;98890.69;5092343;28;20483;-73
2020/12/25 07:31:48;;;;;;;22.00;9.95;;;;;;;-0.39;62.53;98896.16;5097415;28;20032;-74
2020/12/25 07:34:18;;;;;;;19.90;9.48;;;;;;;-0.87;63.14;98849.44;5111017;28;20036;-72
2020/12/25 07:36:45;;;;;;;20.80;10.38;;;;;;;-0.69;63.12;98888.88;5112280;28;20035;-71
2020/12/25 07:39:11;;;;;;;28.13;10.90;;;;;;;-0.52;63.04;98909.91;5112399;28;20031;-73
2020/12/25 07:41:36;;;;;;;18.48;10.63;;;;;;;-0.71;63.39;98872.34;5112309;28;20107;-72
2020/12/25 07:44:03;;;;;;;23.58;9.82;;;;;;;-0.62;63.52;98901.63;5099752;28;20044;-73
2020/12/25 07:46:30;;;;;;;23.63;10.18;;;;;;;-0.82;63.46;98852.69;5091801;28;20059;-70
2020/12/25 07:48:58;;;;;;;20.60;10.45;;;;;;;-0.55;63.34;98899.56;5091511;28;20039;-71
2020/12/25 07:51:24;;;;;;;21.40;11.63;;;;;;;-0.53;63.51;98899.47;5092106;28;20024;-67
2020/12/25 07:53:56;;;;;;;27.88;13.95;;;;;;;-0.70;63.74;98881.94;5105184;28;20040;-70
2020/12/25 07:56:25;;;;;;;23.58;11.32;;;;;;;-0.57;63.64;98883.00;5110072;28;20723;-72
2020/12/25 07:58:52;;;;;;;23.10;10.50;;;;;;;-0.67;63.67;98871.25;5109595;28;20143;-71
2020/12/25 08:01:18;;;;;;;20.10;10.48;;;;;;;-0.57;63.25;98890.88;5110430;28;20459;-70
2020/12/25 08:03:44;;;;;;;21.23;11.25;;;;;;;-0.57;63.48;98906.66;5109155;28;20096;-75
2020/12/25 08:06:13;;;;;;;24.08;11.60;;;;;;;-0.65;63.06;98879.91;5109977;28;20475;-73
2020/12/25 08:08:42;;;;;;;23.10;12.20;;;;;;;-0.57;62.83;98890.06;5109501;28;20814;-72
2020/12/25 08:11:08;;;;;;;23.33;10.77;;;;;;;-0.59;62.86;98898.00;5112834;28;20031;-68
2020/12/25 08:13:37;;;;;;;24.95;12.32;;;;;;;-0.66;63.34;98904.50;5107684;28;20576;-71
2020/12/25 08:16:03;;;;;;;22.52;11.98;;;;;;;-1.20;62.92;98795.00;5109605;28;20034;-72
2020/12/25 08:18:28;;;;;;;26.80;13.00;;;;;;;-0.66;62.70;98880.84;5110692;27;20035;-72
2020/12/25 08:20:54;;;;;;;25.95;13.43;;;;;;;-0.66;62.73;98888.72;5107736;28;20483;-72
2020/12/25 08:23:20;;;;;;;25.98;12.50;;;;;;;-0.67;63.18;98871.25;5110102;28;20054;-73
2020/12/25 08:25:54;;;;;;;23.45;12.48;;;;;;;-0.63;63.11;98846.50;5109880;28;20778;-73
2020/12/25 08:28:22;;;;;;;26.02;12.35;;;;;;;-0.65;62.37;98859.72;5108317;28;20145;-72
2020/12/25 08:30:48;;;;;;;25.25;12.25;;;;;;;-0.60;62.75;98862.13;5108115;28;20043;-69
2020/12/25 08:33:26;;;;;;;22.40;11.80;;;;;;;-0.51;62.36;98856.38;5109924;28;20084;-72
2020/12/25 08:35:53;;;;;;;17.20;8.20;;;;;;;-0.41;62.23;98866.47;5108519;27;20082;-68
2020/12/25 08:38:18;;;;;;;24.42;13.02;;;;;;;-0.52;62.12;98859.13;5107946;27;20437;-73
2020/12/25 08:40:46;;;;;;;20.15;11.35;;;;;;;-0.71;61.60;98838.16;5109096;28;20032;-66
2020/12/25 08:43:14;;;;;;;25.42;12.75;;;;;;;-0.68;61.58;98856.41;5109521;28;20043;-69
2020/12/25 08:46:03;;;;;;;25.13;12.50;;;;;;;-0.69;61.66;98850.28;5108208;27;20100;-68
2020/12/25 08:48:30;;;;;;;22.60;12.15;;;;;;;-0.69;62.02;98878.38;5115626;27;20521;-69
2020/12/25 08:51:10;;;;;;;26.73;12.52;;;;;;;-0.78;61.90;98848.97;5113971;27;20095;-68
2020/12/25 08:53:36;;;;;;;17.67;9.02;;;;;;;-0.70;61.55;98842.50;5117235;27;20398;-66
2020/12/25 08:56:15;;;;;;;27.10;13.93;;;;;;;-0.81;61.99;98854.38;5112594;27;20156;-69
2020/12/25 08:58:53;;;;;;;25.60;14.13;;;;;;;-0.80;61.83;98853.44;5120248;27;20027;-68
2020/12/25 09:01:18;;;;;;;27.38;13.48;;;;;;;-1.18;61.08;98793.16;5113804;27;20027;-67
2020/12/25 09:03:44;;;;;;;25.38;13.80;;;;;;;-0.84;61.49;98849.28;5125308;27;20520;-68
2020/12/25 09:06:10;;;;;;;28.05;12.88;;;;;;;-0.83;61.74;98847.50;5113608;27;20438;-67
2020/12/25 09:08:36;;;;;;;26.90;14.20;;;;;;;-0.85;61.17;98841.44;5118393;27;20070;-71
2020/12/25 09:11:10;;;;;;;25.05;13.27;;;;;;;-0.92;61.17;98839.13;5112103;27;20081;-66
2020/12/25 09:13:37;;;;;;;23.27;11.05;;;;;;;-1.01;60.51;98805.44;5125372;27;20023;-66
2020/12/25 09:16:04;;;;;;;26.30;13.98;;;;;;;-1.01;61.40;98869.34;5115350;27;20126;-65
2020/12/25 09:18:29;;;;;;;28.65;14.13;;;;;;;-1.04;61.54;98824.00;5099377;27;20036;-70
2020/12/25 09:20:55;;;;;;;24.92;13.50;;;;;;;-1.07;61.12;98811.84;5127127;27;20030;-66
2020/12/25 09:23:20;;;;;;;23.83;11.88;;;;;;;-1.09;61.27;98812.84;5108182;27;20405;-69
2020/12/25 09:25:46;;;;;;;24.98;12.88;;;;;;;-1.18;61.32;98796.59;5110353;28;20499;-71
2020/12/25 09:28:11;;;;;;;27.33;13.35;;;;;;;-1.02;60.73;98822.13;5108683;28;20054;-71
2020/12/25 09:30:37;;;;;;;27.10;13.05;;;;;;;-1.10;60.87;98821.66;5108504;28;20031;-73
2020/12/25 09:33:03;;;;;;;18.05;9.02;;;;;;;-1.08;60.54;98825.91;5110717;28;20494;-69
2020/12/25 09:35:28;;;;;;;25.33;12.00;;;;;;;-1.02;60.71;98822.97;5110218;28;20045;-72
2020/12/25 09:37:54;;;;;;;23.52;12.10;;;;;;;-1.09;60.72;98820.72;5094793;28;20028;-67
2020/12/25 09:40:19;;;;;;;25.35;12.45;;;;;;;-1.49;61.26;98765.72;5089859;28;20546;-70
2020/12/25 09:42:45;;;;;;;24.90;11.55;;;;;;;-1.19;60.79;98787.03;5090102;28;20373;-69
2020/12/25 09:45:11;;;;;;;25.23;12.15;;;;;;;-1.14;60.33;98797.31;5089716;28;20039;-69
2020/12/25 09:47:36;;;;;;;24.75;12.48;;;;;;;-1.13;60.71;98816.53;5099375;28;20122;-70
2020/12/25 09:50:03;;;;;;;21.77;12.00;;;;;;;-1.16;60.83;98797.38;5110193;28;20032;-72
2020/12/25 09:52:28;;;;;;;20.60;10.57;;;;;;;-1.10;60.47;98808.50;5110686;28;20019;-69
2020/12/25 09:54:54;;;;;;;24.58;12.30;;;;;;;-1.14;60.48;98805.19;5110950;28;20038;-69
2020/12/25 09:57:19;;;;;;;23.23;11.43;;;;;;;-1.13;60.02;98814.78;5104503;28;20039;-70
2020/12/25 09:59:45;;;;;;;25.85;12.73;;;;;;;-1.19;60.51;98808.03;5088848;28;20036;-70
2020/12/25 10:02:10;;;;;;;23.73;11.25;;;;;;;-1.17;59.87;98810.59;5089714;28;20028;-58
2020/12/25 10:04:36;;;;;;;23.10;12.75;;;;;;;-1.30;60.79;98784.94;5090615;28;20051;-66
2020/12/25 10:07:01;;;;;;;22.38;11.25;;;;;;;-1.19;60.46;98809.84;5090181;28;20032;-65
2020/12/25 10:09:27;;;;;;;25.45;11.75;;;;;;;-1.22;60.31;98813.44;5109590;28;20036;-69
2020/12/25 10:11:54;;;;;;;21.20;10.73;;;;;;;-1.23;60.22;98784.63;5110581;28;20023;-71
2020/12/25 10:14:20;;;;;;;21.67;11.32;;;;;;;-1.23;59.79;98790.75;5110614;28;20044;-71
2020/12/25 10:16:45;;;;;;;21.08;10.43;;;;;;;-1.73;60.21;98714.34;5110143;28;20495;-63
2020/12/25 10:19:11;;;;;;;21.27;11.30;;;;;;;-1.30;60.21;98791.97;5110419;28;20031;-68
2020/12/25 10:21:36;;;;;;;21.05;11.07;;;;;;;-1.73;60.01;98718.75;5093361;28;20039;-71
2020/12/25 10:24:02;;;;;;;19.58;10.50;;;;;;;-1.38;59.79;98787.09;5090304;28;20039;-70
2020/12/25 10:26:27;;;;;;;21.00;10.65;;;;;;;-1.38;59.73;98770.47;5089115;28;20056;-71
2020/12/25 10:28:53;;;;;;;22.27;10.93;;;;;;;-1.33;59.62;98787.72;5101662;28;20054;-66
2020/12/25 10:31:18;;;;;;;18.80;9.88;;;;;;;-1.35;59.78;98802.69;5120847;27;20026;-69
2020/12/25 10:33:43;;;;;;;21.30;11.38;;;;;;;-1.35;59.34;98783.44;5114022;28;20350;-61
2020/12/25 10:36:09;;;;;;;23.08;11.77;;;;;;;-1.41;59.77;98768.00;5099889;28;20445;-71
2020/12/25 10:38:34;;;;;;;19.70;8.68;;;;;;;-1.25;59.10;98796.97;5109850;28;20055;-71
2020/12/25 10:41:02;;;;;;;27.33;11.68;;;;;;;-1.45;59.09;98765.50;5109674;28;20119;-67
2020/12/25 10:43:28;;;;;;;25.63;11.35;;;;;;;-1.37;59.65;98783.53;5113518;28;20035;-70
2020/12/25 10:45:53;;;;;;;20.77;9.43;;;;;;;-1.46;59.12;98758.56;5113322;28;20414;-64
2020/12/25 10:48:19;;;;;;;18.15;9.85;;;;;;;-1.37;60.06;98788.78;5112786;28;20079;-63
2020/12/25 10:50:44;;;;;;;17.40;9.57;;;;;;;-1.47;59.43;98740.25;5112339;28;20042;-64
2020/12/25 10:53:10;;;;;;;21.45;11.07;;;;;;;-1.89;59.87;98660.91;5113792;28;20119;-64
2020/12/25 10:55:37;;;;;;;23.02;11.07;;;;;;;-1.29;59.90;98754.28;5112813;28;20083;-65
2020/12/25 10:58:02;;;;;;;19.77;10.00;;;;;;;-1.56;59.22;98725.81;5113119;28;20043;-65
2020/12/25 11:00:28;;;;;;;21.35;10.38;;;;;;;-1.37;59.84;98767.78;5099543;28;20062;-66
2020/12/25 11:02:53;;;;;;;24.38;9.98;;;;;;;-1.25;59.62;98778.59;5093237;28;20434;-60
2020/12/25 11:05:19;;;;;;;29.67;11.48;;;;;;;-1.38;59.62;98770.47;5092498;28;20521;-62
2020/12/25 11:07:44;;;;;;;22.13;9.93;;;;;;;-1.43;59.66;98759.34;5092455;28;20410;-61
2020/12/25 11:10:10;;;;;;;21.20;11.48;;;;;;;-1.45;60.19;98776.03;5092571;28;20110;-59
2020/12/25 11:12:35;;;;;;;22.75;10.60;;;;;;;-1.49;60.34;98757.84;5105430;28;20046;-61
2020/12/25 11:15:00;;;;;;;20.92;9.70;;;;;;;-1.51;60.18;98768.44;5112772;28;20472;-61
2020/12/25 11:17:26;;;;;;;18.02;10.43;;;;;;;-1.49;60.24;98760.47;5112671;28;20039;-63
2020/12/25 11:19:55;;;;;;;20.65;11.15;;;;;;;-1.49;59.77;98757.84;5112988;28;20072;-64
2020/12/25 11:22:23;;;;;;;20.75;8.93;;;;;;;-1.43;60.17;98752.31;5113018;28;20028;-61
2020/12/25 11:24:48;;;;;;;21.67;10.95;;;;;;;-1.74;59.83;98717.91;5099480;28;20162;-62